• Join FlightAware (Why Join?)
  • Login
  • US Flag 
04:37PM EDT


 

Airport Tracker/Info


-or-


 

Live Flight TrackerFlight Track Log ✈ SWA118 ✈ 17-Apr-2013 ✈ KHOU - KIND

Flight Track Log - Related Links

Times and Time Zones

All times are in EDT time to prevent confusion due to time zone crossing. See the SWA118 flight status page for this flight to view local times or setup timezone preferences in your user account.

Time Position Orientation Groundspeed Altitude Reporting Facility
EDT Latitude Longitude Course Direction KTS MPH feet Rate Location/Type
03:21PM 29.6356 -95.2675 103° East 151 174 700  Level Houston Center
03:22PM 29.6314 -95.2464 103° East 160 184 1,600 1,980 Climbing Houston Center
03:23PM 29.6858 -95.2369 North 266 306 3,500 2,100 Climbing Houston Center
03:24PM 29.7600 -95.2664 341° North 275 316 5,900 2,520 Climbing Houston Center
03:25PM 29.8314 -95.3183 328° Northwest 298 343 8,800 2,400 Climbing Houston Center
03:26PM 29.9119 -95.3658 333° Northwest 329 379 10,900 1,980 Climbing Houston Center
03:27PM 30.0128 -95.3278 18° North 371 427 12,900 2,460 Climbing Houston Center
03:28PM 30.1353 -95.2658 24° Northeast 394 453 16,000 2,580 Climbing Houston Center
03:29PM 30.2400 -95.2100 25° Northeast 407 468 18,300 2,160 Climbing Houston Center
03:30PM 30.3486 -95.1539 24° Northeast 420 483 20,600 1,920 Climbing Houston Center
03:31PM 30.4572 -95.0931 26° Northeast 437 503 22,300 1,620 Climbing Houston Center
03:32PM 30.5739 -95.0308 25° Northeast 459 528 24,000 1,860 Climbing Houston Center
03:33PM 30.7181 -94.9550 24° Northeast 470 541 26,200 1,740 Climbing Houston Center
03:34PM 30.8397 -94.8889 25° Northeast 478 550 27,700 1,320 Climbing Houston Center
03:35PM 30.9408 -94.8364 24° Northeast 468 539 28,800 1,380 Climbing Fort Worth Center
03:36PM 31.0625 -94.7700 25° Northeast 474 545 30,300 1,560 Climbing Fort Worth Center
03:37PM 31.1906 -94.7033 24° Northeast 485 558 31,900 1,680 Climbing Fort Worth Center
03:38PM 31.3036 -94.6197 32° Northeast 485 558 33,700 1,500 Climbing Fort Worth Center
03:39PM 31.4331 -94.5356 29° Northeast 485 558 35,000 600 Climbing Fort Worth Center
03:40PM 31.5508 -94.4808 22° Northeast 470 541 35,000  Level Fort Worth Center
03:41PM 31.6686 -94.4208 23° Northeast 457 526 35,000  Level Fort Worth Center
03:42PM 31.7839 -94.3633 23° Northeast 452 520 35,000  Level Fort Worth Center
03:43PM 31.9036 -94.3056 22° Northeast 452 520 35,000  Level Fort Worth Center
03:44PM 32.0211 -94.2478 23° Northeast 452 520 35,000  Level Fort Worth Center
03:45PM 32.1408 -94.1872 23° Northeast 452 520 35,000  Level Fort Worth Center
03:46PM 32.2436 -94.1269 26° Northeast 452 520 35,000  Level Fort Worth Center
03:47PM 32.3631 -94.0686 22° Northeast 452 520 35,000  Level Fort Worth Center
03:48PM 32.4825 -94.0075 23° Northeast 452 520 35,000  Level Fort Worth Center
03:49PM 32.6019 -93.9461 23° Northeast 452 520 35,000  Level Fort Worth Center
03:50PM 32.7233 -93.8872 22° Northeast 452 520 35,000  Level Fort Worth Center
03:51PM 32.8428 -93.8233 24° Northeast 457 526 35,000  Level Fort Worth Center
03:53PM 33.1375 -93.6742 23° Northeast 475 547 35,000  Level Memphis Center
03:54PM 33.2600 -93.6117 23° Northeast 475 547 35,000  Level Memphis Center
03:55PM 33.3806 -93.5489 23° Northeast 475 547 35,000  Level Memphis Center
03:56PM 33.5181 -93.4792 23° Northeast 480 552 35,000  Level Memphis Center
03:57PM 33.6408 -93.4161 23° Northeast 480 552 35,000  Level Memphis Center
03:59PM 33.8858 -93.2897 23° Northeast 480 552 35,000  Level Memphis Center
04:00PM 34.0083 -93.2236 24° Northeast 480 552 35,000  Level Memphis Center
04:01PM 34.1289 -93.1600 24° Northeast 480 552 35,000  Level Memphis Center
04:02PM 34.2556 -93.0961 23° Northeast 480 552 35,000  Level Memphis Center
04:03PM 34.3758 -93.0272 25° Northeast 480 552 35,000  Level Memphis Center
04:04PM 34.5003 -92.9606 24° Northeast 480 552 35,000  Level Memphis Center
04:05PM 34.6250 -92.8936 24° Northeast 480 552 35,000  Level Memphis Center
04:06PM 34.7472 -92.8289 24° Northeast 480 552 35,000  Level Memphis Center
04:07PM 34.8717 -92.7617 24° Northeast 485 558 35,000  Level Memphis Center
04:08PM 34.9981 -92.6917 24° Northeast 485 558 35,000  Level Memphis Center
04:09PM 35.1203 -92.6242 24° Northeast 485 558 35,000  Level Memphis Center
04:10PM 35.2447 -92.5536 25° Northeast 485 558 35,000  Level Memphis Center
04:11PM 35.3583 -92.4956 23° Northeast 490 564 35,000  Level Memphis Center
04:12PM 35.4806 -92.4300 24° Northeast 485 558 35,000  Level Memphis Center
04:13PM 35.6047 -92.3614 24° Northeast 485 558 35,000  Level Memphis Center
04:14PM 35.7267 -92.2953 24° Northeast 485 558 35,000  Level Memphis Center
04:15PM 35.8486 -92.2264 25° Northeast 485 558 35,000  Level Memphis Center
04:16PM 35.9706 -92.1575 25° Northeast 480 552 35,000  Level Memphis Center
04:17PM 36.0925 -92.0908 24° Northeast 480 552 35,000  Level Memphis Center
04:18PM 36.2164 -92.0239 24° Northeast 480 552 35,000  Level Memphis Center
04:19PM 36.3361 -91.9542 25° Northeast 480 552 35,000  Level Memphis Center
04:20PM 36.4600 -91.8869 24° Northeast 480 552 35,000  Level Memphis Center
04:22PM 36.6906 -91.7522 25° Northeast 484 557 35,000  Level Kansas City Center
04:23PM 36.8119 -91.6822 25° Northeast 481 554 35,000  Level Kansas City Center
04:24PM 36.9300 -91.6197 23° Northeast 466 536 35,000  Level Kansas City Center
04:25PM 37.0503 -91.5492 25° Northeast 472 543 35,000  Level Kansas City Center
04:26PM 37.1694 -91.4808 25° Northeast 472 543 35,000  Level Kansas City Center
04:27PM 37.2894 -91.4114 25° Northeast 473 544 35,000  Level Kansas City Center
04:28PM 37.4325 -91.3281 25° Northeast 473 544 35,000  Level Kansas City Center
04:29PM 37.5544 -91.2575 25° Northeast 477 549 35,000  Level Kansas City Center
04:30PM 37.6736 -91.1869 25° Northeast 477 549 35,000  Level Kansas City Center
04:31PM 37.7933 -91.1158 25° Northeast 476 548 35,000  Level Kansas City Center
04:33PM 37.9133 -91.0456 25° Northeast 477 549 35,000  Level Kansas City Center
04:34PM 38.0256 -90.9650 29° Northeast 471 542 35,000  Level Kansas City Center
04:35PM 38.1297 -90.8803 33° Northeast 448 516 35,000  Level Kansas City Center
04:36PM 38.2583 -90.7825 31° Northeast 450 518 35,000  Level Kansas City Center
04:37PM 38.3653 -90.7000 31° Northeast 449 517 35,000  Level Kansas City Center
04:38PM 38.4794 -90.6372 23° Northeast 456 525 35,000  Level Kansas City Center
04:39PM 38.6003 -90.6172 North 462 532 35,000 -60 Level Kansas City Center
04:40PM 38.7158 -90.5592 21° North 448 516 34,900 -960 Descending Kansas City Center
04:41PM 38.8522 -90.4892 22° Northeast 440 506 33,000 -960 Descending Kansas City Center
04:42PM 38.9514 -90.4889 360° North 420 483 33,000  Level Kansas City Center
04:43PM 39.0639 -90.4486 16° North 426 490 33,000  Level Kansas City Center
04:44PM 39.1947 -90.3906 19° North 424 488 33,000  Level Kansas City Center
04:45PM 39.2439 -90.5092 298° West 415 478 33,000  Level Kansas City Center
04:46PM 39.1528 -90.5706 208° Southwest 405 466 33,000  Level Kansas City Center
04:47PM 39.0489 -90.5411 168° South 386 444 33,000  Level Kansas City Center
04:48PM 38.9283 -90.5022 166° South 384 442 33,000  Level Kansas City Center
04:49PM 38.8264 -90.4722 167° South 377 434 33,000  Level Kansas City Center
04:50PM 38.7633 -90.3678 128° Southeast 402 463 33,000  Level Kansas City Center
04:51PM 38.8181 -90.2528 59° Northeast 407 468 33,000  Level Kansas City Center
04:52PM 38.8933 -90.1419 49° Northeast 409 471 33,000  Level Kansas City Center
04:53PM 39.0069 -90.1039 15° North 413 475 33,000  Level Kansas City Center
04:54PM 39.1192 -90.0975 North 409 471 33,000  Level Kansas City Center
04:55PM 39.2136 -90.1567 334° Northwest 406 467 33,000  Level Kansas City Center
04:56PM 39.1883 -90.3092 258° West 400 460 33,000  Level Kansas City Center
04:57PM 39.0883 -90.3644 203° Southwest 394 453 33,000  Level Kansas City Center
04:58PM 38.9872 -90.4181 202° Southwest 396 456 33,000  Level Kansas City Center
04:59PM 38.8875 -90.4672 201° Southwest 391 450 33,000  Level Kansas City Center
05:00PM 38.7836 -90.4739 183° South 388 447 33,000  Level Kansas City Center
05:01PM 38.7481 -90.3256 107° East 399 459 33,000  Level Kansas City Center
05:03PM 38.8456 -90.2472 32° Northeast 413 475 33,000  Level Kansas City Center
05:04PM 38.9553 -90.1897 22° Northeast 417 480 33,000  Level Kansas City Center
05:05PM 39.0625 -90.1311 23° Northeast 419 482 33,000  Level Kansas City Center
05:06PM 39.1728 -90.1117 North 421 484 33,000  Level Kansas City Center
05:07PM 39.2247 -90.2283 300° West 411 473 33,000  Level Kansas City Center
05:08PM 39.1542 -90.3294 228° Southwest 403 464 33,000  Level Kansas City Center
05:09PM 39.0308 -90.3939 202° Southwest 398 458 33,000  Level Kansas City Center
05:10PM 38.9311 -90.3450 159° South 393 452 33,000  Level Kansas City Center
05:11PM 38.9178 -90.2089 97° East 394 453 33,000  Level Kansas City Center
05:12PM 38.9178 -90.0658 90° East 398 458 33,000  Level Kansas City Center
05:13PM 38.9183 -89.9194 90° East 407 468 33,000  Level Kansas City Center
05:14PM 38.9214 -89.7500 89° East 421 484 33,000  Level Kansas City Center
05:15PM 38.9206 -89.5778 90° East 441 507 33,000 -1,500 Level Kansas City Center
05:16PM 38.9211 -89.4169 90° East 447 514 30,000 -2,400 Descending Kansas City Center
05:17PM 38.9208 -89.2417 90° East 485 558 28,100 -1,560 Descending Kansas City Center
05:18PM 38.9206 -89.0631 90° East 462 532 26,800 -1,140 Descending Kansas City Center
05:19PM 38.9228 -88.9161 89° East 452 520 25,800 -1,020 Descending Kansas City Center
05:20PM 38.9217 -88.7578 90° East 448 516 24,800 -900 Descending Kansas City Center
05:21PM 38.9239 -88.5989 89° East 440 506 24,000 -420 Descending Kansas City Center
05:22PM 38.9253 -88.4475 89° East 428 493 24,000  Level Kansas City Center
05:23PM 38.9350 -88.3608 82° East 419 482 24,000  Level Indianapolis Center
05:24PM 38.9539 -88.2108 81° East 421 484 24,000  Level Indianapolis Center
05:25PM 38.9725 -88.0625 81° East 419 482 24,000 -360 Level Indianapolis Center
05:26PM 39.0094 -87.9142 72° East 438 504 23,300 -540 Descending Indianapolis Center
05:27PM 39.0575 -87.7681 67° East 439 505 23,000 -660 Descending Indianapolis Center
05:28PM 39.1044 -87.6250 67° East 437 503 22,000 -1,740 Descending Indianapolis Center
05:29PM 39.1508 -87.4831 67° East 431 496 19,500 -2,520 Descending Indianapolis Center
05:30PM 39.1983 -87.3386 67° East 432 497 16,900 -2,520 Descending Indianapolis Center
05:31PM 39.2522 -87.1706 67° East 428 493 14,400 -2,160 Descending Indianapolis Center
05:32PM 39.2928 -87.0428 68° East 412 474 12,500 -1,620 Descending Indianapolis Center
05:33PM 39.3308 -86.9236 68° East 389 448 11,100 -900 Descending Indianapolis Center
05:34PM 39.3664 -86.8147 67° East 362 417 10,700 -1,080 Descending Indianapolis Center
05:35PM 39.4017 -86.7203 64° Northeast 326 375 8,900 -1,560 Descending Indianapolis Center
05:36PM 39.4625 -86.6433 44° Northeast 311 358 7,500 -1,020 Descending Indianapolis Center
05:37PM 39.5136 -86.5694 48° Northeast 295 339 6,900 -840 Descending Indianapolis Center
05:38PM 39.5589 -86.5031 48° Northeast 269 310 5,800 -1,140 Descending Indianapolis Center
05:39PM 39.6075 -86.4636 32° Northeast 248 285 4,600 -840 Descending Indianapolis Center
05:40PM 39.5603 -86.4492 167° South 233 268 4,100 -660 Descending Indianapolis Center
05:42PM 39.5167 -86.4833 211° Southwest 197 227 3,000 -480 Descending Indianapolis TRACON
05:43PM 39.5667 -86.4833 360° North 207 238 3,000  Level Indianapolis TRACON
05:44PM 39.6167 -86.4333 38° Northeast 197 227 3,000 -420 Level Indianapolis TRACON
05:45PM 39.6500 -86.3833 49° Northeast 192 221 2,300 -840 Descending Indianapolis TRACON
05:45PM 39.6833 -86.3500 38° Northeast 166 191 1,500 -900 Descending Indianapolis TRACON
05:47PM 39.7167 -86.2833 142° Southeast  Level FlightAware Approximate
05:54PM 39.7173 -86.2947 142° Southeast  Level Estimated